Time,TemperatureF,DewpointF,PressureIn,WindDirection,WindDirectionDegrees,WindSpeedMPH,WindSpeedGustMPH,Humidity,HourlyPrecipIn,Conditions,Clouds,dailyrainin,SolarRadiationWatts/m^2,SoftwareType,DateUTC
2013-08-06 00:02:00,85.0,45.0,-100.00,NW,314,6.0,15.0,25,0.00,,,0.04,562.000000,,2013-08-06 00:02:00,
2013-08-06 00:15:00,85.0,45.0,-100.00,NW,314,6.0,15.0,25,0.00,,,0.04,562.000000,,2013-08-06 00:15:00,
2013-08-06 00:24:00,85.0,45.0,-100.00,NW,314,6.0,15.0,25,0.00,,,0.04,562.000000,,2013-08-06 00:24:00,
2013-08-06 00:34:00,81.0,44.0,-100.00,WNW,288,3.0,10.0,27,0.00,,,0.04,284.000000,,2013-08-06 00:34:00,
2013-08-06 00:57:00,81.0,44.0,-100.00,WNW,288,3.0,10.0,27,0.00,,,0.04,284.000000,,2013-08-06 00:57:00,
2013-08-06 01:07:00,81.0,44.0,-100.00,WNW,288,3.0,10.0,27,0.00,,,0.04,284.000000,,2013-08-06 01:07:00,
2013-08-06 01:14:00,81.0,44.0,-100.00,WNW,288,3.0,10.0,27,0.00,,,0.04,284.000000,,2013-08-06 01:14:00,
2013-08-06 01:26:00,81.0,44.0,-100.00,WNW,288,3.0,10.0,27,0.00,,,0.04,284.000000,,2013-08-06 01:26:00,
2013-08-06 02:01:00,75.0,46.0,-100.00,WNW,292,11.0,17.0,36,0.00,,,0.04,66.000000,,2013-08-06 02:01:00,
2013-08-06 02:07:00,75.0,46.0,-100.00,WNW,292,11.0,17.0,36,0.00,,,0.04,66.000000,,2013-08-06 02:07:00,
2013-08-06 02:15:00,75.0,46.0,-100.00,WNW,292,11.0,17.0,36,0.00,,,0.04,66.000000,,2013-08-06 02:15:00,
2013-08-06 02:32:00,75.0,46.0,-100.00,WNW,292,11.0,17.0,36,0.00,,,0.04,66.000000,,2013-08-06 02:32:00,
2013-08-06 02:34:00,72.0,51.0,-100.00,SW,228,4.0,14.0,47,0.00,,,0.04,4.000000,,2013-08-06 02:34:00,
2013-08-06 02:52:00,72.0,51.0,-100.00,SW,228,4.0,14.0,47,0.00,,,0.04,4.000000,,2013-08-06 02:52:00,
2013-08-06 03:01:00,72.0,51.0,-100.00,SW,228,4.0,14.0,47,0.00,,,0.04,4.000000,,2013-08-06 03:01:00,
2013-08-06 03:15:00,72.0,51.0,-100.00,SW,228,4.0,14.0,47,0.00,,,0.04,4.000000,,2013-08-06 03:15:00,
2013-08-06 03:25:00,72.0,51.0,-100.00,SW,228,4.0,14.0,47,0.00,,,0.04,4.000000,,2013-08-06 03:25:00,
2013-08-06 03:52:00,67.0,52.0,-100.00,NE,48,6.0,16.0,58,0.00,,,0.04,0.000000,,2013-08-06 03:52:00,
2013-08-06 04:01:00,67.0,52.0,-100.00,NE,48,6.0,16.0,58,0.00,,,0.04,0.000000,,2013-08-06 04:01:00,
2013-08-06 04:11:00,67.0,52.0,-100.00,NE,48,6.0,16.0,58,0.00,,,0.04,0.000000,,2013-08-06 04:11:00,
2013-08-06 04:22:00,67.0,52.0,-100.00,NE,48,6.0,16.0,58,0.00,,,0.04,0.000000,,2013-08-06 04:22:00,
2013-08-06 04:33:00,67.0,52.0,-100.00,NE,48,6.0,16.0,58,0.00,,,0.04,0.000000,,2013-08-06 04:33:00,
2013-08-06 04:53:00,65.0,51.0,-100.00,West,259,3.0,13.0,60,0.00,,,0.04,0.000000,,2013-08-06 04:53:00,
2013-08-06 05:02:00,65.0,51.0,-100.00,West,259,3.0,13.0,60,0.00,,,0.04,0.000000,,2013-08-06 05:02:00,
2013-08-06 05:11:00,65.0,51.0,-100.00,West,259,3.0,13.0,60,0.00,,,0.04,0.000000,,2013-08-06 05:11:00,
2013-08-06 05:22:00,65.0,51.0,-100.00,West,259,3.0,13.0,60,0.00,,,0.04,0.000000,,2013-08-06 05:22:00,
2013-08-06 05:32:00,65.0,51.0,-100.00,West,259,3.0,13.0,60,0.00,,,0.04,0.000000,,2013-08-06 05:32:00,
2013-08-06 05:53:00,63.0,48.0,-100.00,WNW,294,3.0,7.0,59,0.00,,,0.04,0.000000,,2013-08-06 05:53:00,
2013-08-06 06:02:00,63.0,48.0,-100.00,WNW,294,3.0,7.0,59,0.00,,,0.04,0.000000,,2013-08-06 06:02:00,
2013-08-06 06:11:00,63.0,48.0,-100.00,WNW,294,3.0,7.0,59,0.00,,,0.04,0.000000,,2013-08-06 06:11:00,
2013-08-06 06:22:00,63.0,48.0,-100.00,WNW,294,3.0,7.0,59,0.00,,,0.04,0.000000,,2013-08-06 06:22:00,
2013-08-06 06:32:00,63.0,48.0,-100.00,WNW,294,3.0,7.0,59,0.00,,,0.04,0.000000,,2013-08-06 06:32:00,
2013-08-06 07:01:00,63.0,50.0,-100.00,North,6,7.0,11.0,62,0.00,,,0.04,0.000000,,2013-08-06 07:01:00,
2013-08-06 07:12:00,63.0,50.0,-100.00,North,6,7.0,11.0,62,0.00,,,0.04,0.000000,,2013-08-06 07:12:00,
2013-08-06 07:22:00,63.0,50.0,-100.00,North,6,7.0,11.0,62,0.00,,,0.04,0.000000,,2013-08-06 07:22:00,
2013-08-06 07:32:00,63.0,50.0,-100.00,North,6,7.0,11.0,62,0.00,,,0.04,0.000000,,2013-08-06 07:32:00,
2013-08-06 07:53:00,62.0,48.0,-100.00,South,174,5.0,9.0,61,0.00,,,0.02,0.000000,,2013-08-06 07:53:00,
2013-08-06 08:01:00,62.0,48.0,-100.00,South,174,5.0,9.0,61,0.00,,,0.02,0.000000,,2013-08-06 08:01:00,
2013-08-06 08:11:00,62.0,48.0,-100.00,South,174,5.0,9.0,61,0.00,,,0.02,0.000000,,2013-08-06 08:11:00,
2013-08-06 08:22:00,62.0,48.0,-100.00,South,174,5.0,9.0,61,0.00,,,0.02,0.000000,,2013-08-06 08:22:00,
2013-08-06 08:33:00,62.0,48.0,-100.00,South,174,5.0,9.0,61,0.00,,,0.02,0.000000,,2013-08-06 08:33:00,
2013-08-06 08:52:00,58.0,49.0,-100.00,NNE,23,4.0,6.0,72,0.00,,,0.00,0.000000,,2013-08-06 08:52:00,
2013-08-06 09:01:00,58.0,49.0,-100.00,NNE,23,4.0,6.0,72,0.00,,,0.00,0.000000,,2013-08-06 09:01:00,
2013-08-06 09:11:00,58.0,49.0,-100.00,NNE,23,4.0,6.0,72,0.00,,,0.00,0.000000,,2013-08-06 09:11:00,
2013-08-06 09:22:00,58.0,49.0,-100.00,NNE,23,4.0,6.0,72,0.00,,,0.00,0.000000,,2013-08-06 09:22:00,
2013-08-06 09:32:00,58.0,49.0,-100.00,NNE,23,4.0,6.0,72,0.00,,,0.00,0.000000,,2013-08-06 09:32:00,
2013-08-06 09:52:00,59.0,48.0,-100.00,ESE,112,6.0,7.0,67,0.00,,,0.00,0.000000,,2013-08-06 09:52:00,
2013-08-06 10:01:00,59.0,48.0,-100.00,ESE,112,6.0,7.0,67,0.00,,,0.00,0.000000,,2013-08-06 10:01:00,
2013-08-06 10:11:00,59.0,48.0,-100.00,ESE,112,6.0,7.0,67,0.00,,,0.00,0.000000,,2013-08-06 10:11:00,
2013-08-06 10:22:00,59.0,48.0,-100.00,ESE,112,6.0,7.0,67,0.00,,,0.00,0.000000,,2013-08-06 10:22:00,
2013-08-06 10:32:00,59.0,48.0,-100.00,ESE,112,6.0,7.0,67,0.00,,,0.00,0.000000,,2013-08-06 10:32:00,
2013-08-06 10:53:00,59.0,50.0,-100.00,SE,142,5.0,8.0,71,0.00,,,0.00,0.000000,,2013-08-06 10:53:00,
2013-08-06 11:01:00,59.0,50.0,-100.00,SE,142,5.0,8.0,71,0.00,,,0.00,0.000000,,2013-08-06 11:01:00,
2013-08-06 11:11:00,59.0,50.0,-100.00,SE,142,5.0,8.0,71,0.00,,,0.00,0.000000,,2013-08-06 11:11:00,
2013-08-06 11:22:00,59.0,50.0,-100.00,SE,142,5.0,8.0,71,0.00,,,0.00,0.000000,,2013-08-06 11:22:00,
2013-08-06 11:32:00,59.0,50.0,-100.00,SE,142,5.0,8.0,71,0.00,,,0.00,0.000000,,2013-08-06 11:32:00,
2013-08-06 11:53:00,57.0,49.0,-100.00,South,190,3.0,6.0,75,0.00,,,0.00,0.000000,,2013-08-06 11:53:00,
2013-08-06 12:01:00,57.0,49.0,-100.00,South,190,3.0,6.0,75,0.00,,,0.00,0.000000,,2013-08-06 12:01:00,
2013-08-06 12:11:00,57.0,49.0,-100.00,South,190,3.0,6.0,75,0.00,,,0.00,0.000000,,2013-08-06 12:11:00,
2013-08-06 12:22:00,57.0,49.0,-100.00,South,190,3.0,6.0,75,0.00,,,0.00,0.000000,,2013-08-06 12:22:00,
2013-08-06 12:32:00,57.0,49.0,-100.00,South,190,3.0,6.0,75,0.00,,,0.00,0.000000,,2013-08-06 12:32:00,
2013-08-06 13:02:00,54.0,49.0,-100.00,NE,51,3.0,6.0,82,0.00,,,0.00,3.000000,,2013-08-06 13:02:00,
2013-08-06 13:11:00,54.0,49.0,-100.00,NE,51,3.0,6.0,82,0.00,,,0.00,3.000000,,2013-08-06 13:11:00,
2013-08-06 13:22:00,54.0,49.0,-100.00,NE,51,3.0,6.0,82,0.00,,,0.00,3.000000,,2013-08-06 13:22:00,
2013-08-06 13:32:00,54.0,49.0,-100.00,NE,51,3.0,6.0,82,0.00,,,0.00,3.000000,,2013-08-06 13:32:00,
2013-08-06 14:01:00,62.0,54.0,-100.00,North,351,2.0,6.0,75,0.00,,,0.00,84.000000,,2013-08-06 14:01:00,
2013-08-06 14:11:00,62.0,54.0,-100.00,North,351,2.0,6.0,75,0.00,,,0.00,84.000000,,2013-08-06 14:11:00,
2013-08-06 14:22:00,62.0,54.0,-100.00,North,351,2.0,6.0,75,0.00,,,0.00,84.000000,,2013-08-06 14:22:00,
2013-08-06 14:32:00,62.0,54.0,-100.00,North,351,2.0,6.0,75,0.00,,,0.00,84.000000,,2013-08-06 14:32:00,
2013-08-06 15:02:00,69.0,53.0,-100.00,NW,308,2.0,4.0,57,0.00,,,0.00,260.000000,,2013-08-06 15:02:00,
2013-08-06 15:11:00,69.0,53.0,-100.00,NW,308,2.0,4.0,57,0.00,,,0.00,260.000000,,2013-08-06 15:11:00,
2013-08-06 15:22:00,69.0,53.0,-100.00,NW,308,2.0,4.0,57,0.00,,,0.00,260.000000,,2013-08-06 15:22:00,
2013-08-06 15:33:00,69.0,53.0,-100.00,NW,308,2.0,4.0,57,0.00,,,0.00,260.000000,,2013-08-06 15:33:00,
2013-08-06 15:52:00,73.0,52.0,-100.00,WNW,295,4.0,6.0,48,0.00,,,0.00,472.000000,,2013-08-06 15:52:00,
2013-08-06 16:02:00,73.0,52.0,-100.00,WNW,295,4.0,6.0,48,0.00,,,0.00,472.000000,,2013-08-06 16:02:00,
2013-08-06 16:11:00,73.0,52.0,-100.00,WNW,295,4.0,6.0,48,0.00,,,0.00,472.000000,,2013-08-06 16:11:00,
2013-08-06 16:22:00,73.0,52.0,-100.00,WNW,295,4.0,6.0,48,0.00,,,0.00,472.000000,,2013-08-06 16:22:00,
2013-08-06 16:32:00,73.0,52.0,-100.00,WNW,295,4.0,6.0,48,0.00,,,0.00,472.000000,,2013-08-06 16:32:00,
2013-08-06 16:52:00,76.0,51.0,-100.00,NW,319,5.0,8.0,41,0.00,,,0.00,665.000000,,2013-08-06 16:52:00,
2013-08-06 17:02:00,76.0,51.0,-100.00,NW,319,5.0,8.0,41,0.00,,,0.00,665.000000,,2013-08-06 17:02:00,
2013-08-06 17:11:00,76.0,51.0,-100.00,NW,319,5.0,8.0,41,0.00,,,0.00,665.000000,,2013-08-06 17:11:00,
2013-08-06 17:21:00,76.0,51.0,-100.00,NW,319,5.0,8.0,41,0.00,,,0.00,665.000000,,2013-08-06 17:21:00,
2013-08-06 17:32:00,76.0,51.0,-100.00,NW,319,5.0,8.0,41,0.00,,,0.00,665.000000,,2013-08-06 17:32:00,
2013-08-06 17:52:00,81.0,49.0,-100.00,WNW,282,4.0,9.0,33,0.00,,,0.00,820.000000,,2013-08-06 17:52:00,
2013-08-06 18:01:00,81.0,49.0,-100.00,WNW,282,4.0,9.0,33,0.00,,,0.00,820.000000,,2013-08-06 18:01:00,
2013-08-06 18:11:00,81.0,49.0,-100.00,WNW,282,4.0,9.0,33,0.00,,,0.00,820.000000,,2013-08-06 18:11:00,
2013-08-06 18:22:00,81.0,49.0,-100.00,WNW,282,4.0,9.0,33,0.00,,,0.00,820.000000,,2013-08-06 18:22:00,
2013-08-06 18:32:00,81.0,49.0,-100.00,WNW,282,4.0,9.0,33,0.00,,,0.00,820.000000,,2013-08-06 18:32:00,
2013-08-06 18:52:00,83.0,47.0,-100.00,NW,325,6.0,11.0,29,0.00,,,0.00,898.000000,,2013-08-06 18:52:00,
2013-08-06 19:01:00,83.0,47.0,-100.00,NW,325,6.0,11.0,29,0.00,,,0.00,898.000000,,2013-08-06 19:01:00,
2013-08-06 19:11:00,83.0,47.0,-100.00,NW,325,6.0,11.0,29,0.00,,,0.00,898.000000,,2013-08-06 19:11:00,
2013-08-06 19:21:00,83.0,47.0,-100.00,NW,325,6.0,11.0,29,0.00,,,0.00,898.000000,,2013-08-06 19:21:00,
2013-08-06 19:32:00,83.0,47.0,-100.00,NW,325,6.0,11.0,29,0.00,,,0.00,898.000000,,2013-08-06 19:32:00,
2013-08-06 19:52:00,84.0,42.0,-100.00,SW,226,6.0,16.0,23,0.00,,,0.00,933.000000,,2013-08-06 19:52:00,
2013-08-06 20:01:00,84.0,42.0,-100.00,SW,226,6.0,16.0,23,0.00,,,0.00,933.000000,,2013-08-06 20:01:00,
2013-08-06 20:11:00,84.0,42.0,-100.00,SW,226,6.0,16.0,23,0.00,,,0.00,933.000000,,2013-08-06 20:11:00,
2013-08-06 20:22:00,84.0,42.0,-100.00,SW,226,6.0,16.0,23,0.00,,,0.00,933.000000,,2013-08-06 20:22:00,
2013-08-06 20:32:00,84.0,42.0,-100.00,SW,226,6.0,16.0,23,0.00,,,0.00,933.000000,,2013-08-06 20:32:00,
2013-08-06 20:52:00,80.0,42.0,-100.00,NW,325,14.0,26.0,26,0.00,,,0.00,716.000000,,2013-08-06 20:52:00,
2013-08-06 21:01:00,80.0,42.0,-100.00,NW,325,14.0,26.0,26,0.00,,,0.00,716.000000,,2013-08-06 21:01:00,
2013-08-06 21:11:00,80.0,42.0,-100.00,NW,325,14.0,26.0,26,0.00,,,0.00,716.000000,,2013-08-06 21:11:00,
2013-08-06 21:22:00,80.0,42.0,-100.00,NW,325,14.0,26.0,26,0.00,,,0.00,716.000000,,2013-08-06 21:22:00,
2013-08-06 21:32:00,80.0,42.0,-100.00,NW,325,14.0,26.0,26,0.00,,,0.00,716.000000,,2013-08-06 21:32:00,
2013-08-06 21:52:00,79.0,45.0,-100.00,NW,306,10.0,18.0,30,0.00,,,0.00,558.000000,,2013-08-06 21:52:00,
2013-08-06 22:01:00,79.0,45.0,-100.00,NW,306,10.0,18.0,30,0.00,,,0.00,558.000000,,2013-08-06 22:01:00,
2013-08-06 22:11:00,79.0,45.0,-100.00,NW,306,10.0,18.0,30,0.00,,,0.00,558.000000,,2013-08-06 22:11:00,
2013-08-06 22:22:00,79.0,45.0,-100.00,NW,306,10.0,18.0,30,0.00,,,0.00,558.000000,,2013-08-06 22:22:00,
2013-08-06 22:32:00,79.0,45.0,-100.00,NW,306,10.0,18.0,30,0.00,,,0.00,558.000000,,2013-08-06 22:32:00,
2013-08-06 22:53:00,80.0,45.0,-100.00,NNW,330,6.0,14.0,29,0.00,,,0.00,536.000000,,2013-08-06 22:53:00,
2013-08-06 23:01:00,80.0,45.0,-100.00,NNW,330,6.0,14.0,29,0.00,,,0.00,536.000000,,2013-08-06 23:01:00,
2013-08-06 23:11:00,80.0,45.0,-100.00,NNW,330,6.0,14.0,29,0.00,,,0.00,536.000000,,2013-08-06 23:11:00,
2013-08-06 23:22:00,80.0,45.0,-100.00,NNW,330,6.0,14.0,29,0.00,,,0.00,536.000000,,2013-08-06 23:22:00,
2013-08-06 23:32:00,80.0,45.0,-100.00,NNW,330,6.0,14.0,29,0.00,,,0.00,536.000000,,2013-08-06 23:32:00,
2013-08-06 23:52:00,79.0,42.0,-100.00,WNW,303,9.0,13.0,27,0.00,,,0.00,389.000000,,2013-08-06 23:52:00,